createdAt,value
2023-05-12T00:00:59.630Z,2.65
2023-05-12T00:03:25.547Z,3.58
2023-05-12T00:05:51.434Z,2.85
2023-05-12T00:08:17.258Z,3.08
2023-05-12T00:10:42.994Z,3.17
2023-05-12T00:13:08.870Z,3.08
2023-05-12T00:15:36.219Z,2.72
2023-05-12T00:18:01.996Z,2.85
2023-05-12T00:20:27.889Z,3.35
2023-05-12T00:22:53.646Z,3.67
2023-05-12T00:25:19.354Z,3.45
2023-05-12T00:27:45.094Z,3.58
2023-05-12T00:30:11.057Z,3.40
2023-05-12T00:32:36.872Z,3.45
2023-05-12T00:35:03.046Z,3.38
2023-05-12T00:37:28.801Z,3.58
2023-05-12T00:39:54.752Z,3.20
2023-05-12T00:42:20.517Z,3.40
2023-05-12T00:44:47.169Z,3.17
2023-05-12T00:47:13.778Z,3.03
2023-05-12T00:49:42.028Z,3.83
2023-05-12T00:52:07.916Z,3.42
2023-05-12T00:54:34.271Z,2.97
2023-05-12T00:57:00.226Z,2.95
2023-05-12T00:59:26.180Z,3.05
2023-05-12T01:01:52.038Z,3.42
2023-05-12T01:04:17.962Z,3.80
2023-05-12T01:06:57.843Z,3.28
2023-05-12T01:09:23.854Z,3.17
2023-05-12T01:11:49.633Z,3.03
2023-05-12T01:14:15.354Z,3.22
2023-05-12T01:16:44.342Z,3.40
2023-05-12T01:19:14.559Z,3.22
2023-05-12T01:21:40.681Z,2.78
2023-05-12T01:24:08.535Z,3.67
2023-05-12T01:26:35.252Z,3.13
2023-05-12T01:29:01.891Z,3.58
2023-05-12T01:31:28.260Z,2.92
2023-05-12T01:33:54.077Z,3.45
2023-05-12T01:36:19.828Z,3.42
2023-05-12T01:38:45.741Z,3.63
2023-05-12T01:41:11.476Z,3.42
2023-05-12T01:43:37.207Z,2.92
2023-05-12T01:46:03.505Z,3.78
2023-05-12T01:48:29.302Z,2.80
2023-05-12T01:50:55.031Z,2.97
2023-05-12T01:53:20.769Z,3.28
2023-05-12T01:55:46.525Z,3.80
2023-05-12T01:58:12.305Z,3.40
2023-05-12T02:00:38.038Z,3.58
2023-05-12T02:03:03.979Z,3.55
2023-05-12T02:05:29.854Z,4.00
2023-05-12T02:07:55.734Z,3.35
2023-05-12T02:10:21.769Z,3.78
2023-05-12T02:12:47.878Z,3.60
2023-05-12T02:15:13.605Z,3.25
2023-05-12T02:17:39.348Z,3.10
2023-05-12T02:20:05.502Z,3.72
2023-05-12T02:22:31.266Z,3.88
2023-05-12T02:24:57.068Z,3.75
2023-05-12T02:27:22.778Z,3.00
2023-05-12T02:29:48.521Z,3.25
2023-05-12T02:32:14.414Z,3.55
2023-05-12T02:34:40.126Z,4.50
2023-05-12T02:37:06.017Z,3.50
2023-05-12T02:39:31.749Z,4.10
2023-05-12T02:41:57.476Z,3.58
2023-05-12T02:44:23.224Z,4.68
2023-05-12T02:46:48.970Z,3.20
2023-05-12T02:49:15.104Z,3.75
2023-05-12T02:51:41.850Z,3.35
2023-05-12T02:54:07.606Z,3.95
2023-05-12T02:56:34.043Z,4.15
2023-05-12T02:59:00.378Z,3.55
2023-05-12T03:01:26.137Z,3.13
2023-05-12T03:03:51.925Z,3.50
2023-05-12T03:06:17.773Z,3.53
2023-05-12T03:08:43.519Z,3.05
2023-05-12T03:11:09.259Z,3.33
2023-05-12T03:13:35.036Z,3.40
2023-05-12T03:16:00.820Z,3.90
2023-05-12T03:18:27.891Z,3.22
2023-05-12T03:20:54.099Z,3.80
2023-05-12T03:23:19.815Z,3.85
2023-05-12T03:25:45.534Z,4.18
2023-05-12T03:28:12.239Z,3.60
2023-05-12T03:30:37.971Z,4.78
2023-05-12T03:33:03.828Z,3.92
2023-05-12T03:35:30.312Z,4.35
2023-05-12T03:37:56.046Z,4.05
2023-05-12T03:40:21.963Z,3.88
2023-05-12T03:42:47.862Z,4.10
2023-05-12T03:45:13.608Z,3.25
2023-05-12T03:47:39.831Z,3.53
2023-05-12T03:50:06.852Z,3.67
2023-05-12T03:52:32.792Z,4.25
2023-05-12T03:54:58.523Z,3.25
2023-05-12T03:57:24.268Z,3.60
2023-05-12T03:59:50.242Z,3.53
2023-05-12T04:02:16.018Z,3.30
2023-05-12T04:04:41.836Z,5.22
2023-05-12T04:07:07.561Z,3.47
2023-05-12T04:09:33.370Z,3.58
2023-05-12T04:11:59.580Z,3.85
2023-05-12T04:14:35.216Z,3.78
2023-05-12T04:17:05.268Z,3.17
2023-05-12T04:19:31.023Z,3.47
2023-05-12T04:21:56.772Z,4.05
2023-05-12T04:24:24.794Z,3.92
2023-05-12T04:26:50.522Z,3.28
2023-05-12T04:29:16.311Z,3.95
2023-05-12T04:31:42.156Z,3.88
2023-05-12T04:34:07.947Z,3.80
2023-05-12T04:36:33.688Z,4.07
2023-05-12T04:38:59.472Z,3.50
2023-05-12T04:41:25.417Z,4.18
2023-05-12T04:46:20.028Z,3.30
2023-05-12T04:48:45.867Z,3.03
2023-05-12T04:51:11.712Z,3.58
2023-05-12T04:53:37.493Z,3.25
2023-05-12T04:56:03.375Z,3.85
2023-05-12T04:58:29.117Z,3.83
2023-05-12T05:00:55.336Z,3.28
2023-05-12T05:03:22.100Z,3.83
2023-05-12T05:05:48.550Z,3.70
2023-05-12T05:08:14.869Z,3.33
2023-05-12T05:10:41.152Z,3.00
2023-05-12T05:13:16.210Z,3.47
2023-05-12T05:15:51.839Z,3.55
2023-05-12T05:18:18.515Z,4.05
2023-05-12T05:20:50.777Z,3.92
2023-05-12T05:23:23.308Z,3.22
2023-05-12T05:25:49.249Z,3.60
2023-05-12T05:28:15.883Z,3.60
2023-05-12T05:30:42.021Z,3.65
2023-05-12T05:33:08.057Z,3.47
2023-05-12T05:35:34.432Z,3.53
2023-05-12T05:38:01.070Z,3.65
2023-05-12T05:40:32.025Z,3.53
2023-05-12T05:43:05.426Z,4.00
2023-05-12T05:45:32.036Z,3.42
2023-05-12T05:47:58.119Z,3.50
2023-05-12T05:50:25.445Z,3.22
2023-05-12T05:52:52.405Z,3.30
2023-05-12T05:55:18.801Z,3.38
2023-05-12T05:57:48.109Z,2.78
2023-05-12T06:00:14.496Z,3.55
2023-05-12T06:02:43.559Z,3.08
2023-05-12T06:05:10.277Z,3.17
2023-05-12T06:07:36.492Z,3.13
2023-05-12T06:10:03.846Z,3.50
2023-05-12T06:12:30.334Z,3.28
2023-05-12T06:14:58.121Z,3.25
2023-05-12T06:17:24.413Z,2.90
2023-05-12T06:19:50.747Z,2.95
2023-05-12T06:22:16.878Z,3.92
2023-05-12T06:24:44.372Z,3.72
2023-05-12T06:27:10.584Z,3.60
2023-05-12T06:29:38.158Z,4.32
2023-05-12T06:32:05.182Z,3.60
2023-05-12T06:34:31.857Z,3.35
2023-05-12T06:36:57.731Z,3.05
2023-05-12T06:39:23.940Z,3.58
2023-05-12T06:41:50.377Z,2.88
2023-05-12T06:44:42.487Z,3.10
2023-05-12T06:47:09.790Z,2.90
2023-05-12T06:49:37.595Z,3.03
2023-05-12T06:52:04.571Z,3.67
2023-05-12T06:54:30.671Z,3.05
2023-05-12T06:56:58.918Z,3.22
2023-05-12T06:59:25.128Z,2.95
2023-05-12T07:01:51.634Z,3.28
2023-05-12T07:04:17.917Z,3.65
2023-05-12T07:06:43.940Z,3.20
2023-05-12T07:09:10.137Z,3.38
2023-05-12T07:11:36.259Z,3.45
2023-05-12T07:14:20.788Z,2.40
2023-05-12T07:16:46.906Z,2.80
2023-05-12T07:19:16.196Z,3.33
2023-05-12T07:21:42.802Z,2.65
2023-05-12T07:24:10.192Z,2.63
2023-05-12T07:26:36.858Z,2.40
2023-05-12T07:29:06.744Z,2.50
2023-05-12T07:31:34.538Z,2.90
2023-05-12T07:34:00.522Z,2.75
2023-05-12T07:36:26.388Z,3.38
2023-05-12T07:38:52.738Z,2.55
2023-05-12T07:41:20.091Z,2.10
2023-05-12T07:43:46.597Z,2.20
2023-05-12T07:46:16.550Z,2.17
2023-05-12T07:48:42.754Z,2.28
2023-05-12T07:51:21.545Z,2.65
2023-05-12T07:53:48.492Z,2.92
2023-05-12T07:56:14.571Z,2.40
2023-05-12T07:58:40.895Z,2.15
2023-05-12T08:01:08.629Z,2.10
2023-05-12T08:03:35.129Z,2.30
2023-05-12T08:06:03.230Z,3.20
2023-05-12T08:08:31.696Z,2.40
2023-05-12T08:10:58.417Z,3.55
2023-05-12T08:13:26.141Z,2.80
2023-05-12T08:15:52.660Z,2.30
2023-05-12T08:18:23.237Z,3.00
2023-05-12T08:23:16.761Z,2.40
2023-05-12T08:25:44.757Z,4.32
2023-05-12T08:28:12.449Z,2.38
2023-05-12T08:30:39.306Z,2.40
2023-05-12T08:33:05.949Z,2.58
2023-05-12T08:35:32.676Z,2.60
2023-05-12T08:38:01.574Z,2.35
2023-05-12T08:40:29.624Z,2.85
2023-05-12T08:43:17.136Z,2.40
2023-05-12T08:45:43.952Z,2.35
2023-05-12T08:48:10.457Z,2.50
2023-05-12T08:50:37.561Z,2.10
2023-05-12T08:53:05.083Z,2.10
2023-05-12T08:55:34.049Z,2.78
2023-05-12T08:58:02.558Z,2.00
2023-05-12T09:00:30.776Z,2.67
2023-05-12T09:02:59.261Z,2.03
2023-05-12T09:05:26.350Z,2.28
2023-05-12T09:07:57.480Z,2.95
2023-05-12T09:13:04.062Z,2.60
2023-05-12T09:18:18.125Z,3.38
2023-05-12T09:20:54.080Z,1.17
2023-05-12T09:26:05.170Z,2.40
2023-05-12T09:31:20.601Z,2.33
2023-05-12T09:33:47.672Z,2.63
2023-05-12T09:36:20.851Z,2.08
2023-05-12T09:38:57.740Z,1.77
2023-05-12T09:41:24.510Z,1.90
2023-05-12T09:43:53.201Z,2.67
2023-05-12T09:46:21.671Z,2.08
2023-05-12T09:48:48.745Z,1.63
2023-05-12T09:51:27.510Z,1.67
2023-05-12T09:53:53.688Z,1.60
2023-05-12T09:56:20.189Z,2.10
2023-05-12T09:58:47.500Z,2.30
2023-05-12T10:01:23.737Z,2.35
2023-05-12T10:03:55.041Z,2.03
2023-05-12T10:06:33.496Z,1.83
2023-05-12T10:09:11.839Z,2.00
2023-05-12T10:11:39.782Z,1.55
2023-05-12T10:14:49.865Z,1.85
2023-05-12T10:17:17.576Z,2.50
2023-05-12T10:19:44.355Z,1.90
2023-05-12T10:22:10.889Z,2.50
2023-05-12T10:24:37.824Z,2.00
2023-05-12T10:27:05.709Z,2.13
2023-05-12T10:29:32.701Z,2.22
2023-05-12T10:32:01.579Z,1.70
2023-05-12T10:34:36.394Z,2.10
2023-05-12T10:37:10.798Z,2.30
2023-05-12T10:39:37.845Z,2.28
2023-05-12T10:42:07.962Z,2.10
2023-05-12T10:44:47.533Z,2.65
2023-05-12T10:47:15.041Z,2.22
2023-05-12T10:49:42.091Z,2.35
2023-05-12T10:52:10.392Z,2.15
2023-05-12T10:54:41.154Z,2.00
2023-05-12T10:57:15.007Z,1.60
2023-05-12T10:59:47.813Z,1.95
2023-05-12T11:02:18.614Z,2.10
2023-05-12T11:07:14.335Z,2.30
2023-05-12T11:12:15.881Z,2.88
2023-05-12T11:14:43.489Z,2.80
2023-05-12T11:17:10.777Z,2.00
2023-05-12T11:19:37.304Z,2.28
2023-05-12T11:22:09.921Z,1.90
2023-05-12T11:24:37.106Z,2.03
2023-05-12T11:27:03.777Z,2.78
2023-05-12T11:29:30.509Z,2.38
2023-05-12T11:31:56.901Z,2.47
2023-05-12T11:34:23.515Z,2.38
2023-05-12T11:36:51.238Z,2.00
2023-05-12T11:39:20.600Z,2.83
2023-05-12T11:41:47.144Z,2.35
2023-05-12T11:44:23.580Z,2.00
2023-05-12T11:46:58.673Z,2.13
2023-05-12T11:49:25.313Z,2.17
2023-05-12T11:51:55.216Z,1.98
2023-05-12T11:54:21.666Z,2.13
2023-05-12T11:56:49.235Z,2.22
2023-05-12T11:59:25.035Z,2.03
2023-05-12T12:01:51.074Z,2.08
2023-05-12T12:04:17.012Z,1.73
2023-05-12T12:06:43.508Z,2.17
2023-05-12T12:09:09.713Z,2.03
2023-05-12T12:11:35.795Z,2.33
2023-05-12T12:14:02.536Z,1.98
2023-05-12T12:16:32.325Z,1.88
2023-05-12T12:18:58.380Z,2.10
2023-05-12T12:21:24.856Z,2.35
2023-05-12T12:23:51.832Z,2.92
2023-05-12T12:26:20.166Z,1.98
2023-05-12T12:28:46.483Z,2.10
2023-05-12T12:31:14.887Z,1.80
2023-05-12T12:33:41.067Z,2.08
2023-05-12T12:36:07.341Z,1.50
2023-05-12T12:38:33.389Z,1.98
2023-05-12T12:40:59.963Z,1.80
2023-05-12T12:43:26.765Z,1.77
2023-05-12T12:45:54.168Z,2.03
2023-05-12T12:48:20.633Z,1.40
2023-05-12T12:50:46.541Z,2.65
2023-05-12T12:53:12.650Z,1.42
2023-05-12T12:55:38.803Z,2.10
2023-05-12T12:58:04.756Z,1.70
2023-05-12T13:00:31.185Z,3.55
2023-05-12T13:02:58.506Z,2.10
2023-05-12T13:05:24.502Z,1.65
2023-05-12T13:07:51.072Z,1.83
2023-05-12T13:10:17.209Z,1.83
2023-05-12T13:12:43.492Z,1.98
2023-05-12T13:15:09.941Z,1.55
2023-05-12T13:17:36.032Z,2.03
2023-05-12T13:20:03.366Z,1.88
2023-05-12T13:22:32.040Z,2.45
2023-05-12T13:24:58.161Z,2.10
2023-05-12T13:27:24.362Z,2.38
2023-05-12T13:29:52.650Z,1.60
2023-05-12T13:32:20.206Z,1.73
2023-05-12T13:34:46.584Z,1.45
2023-05-12T13:37:12.636Z,1.67
2023-05-12T13:39:39.026Z,1.80
2023-05-12T13:42:05.247Z,1.77
2023-05-12T13:44:34.329Z,1.73
2023-05-12T13:47:00.178Z,1.88
2023-05-12T13:49:26.682Z,1.45
2023-05-12T13:51:52.753Z,1.80
2023-05-12T13:54:18.726Z,1.73
2023-05-12T13:56:44.718Z,2.50
2023-05-12T13:59:10.703Z,1.25
2023-05-12T14:01:36.650Z,1.75
2023-05-12T14:04:03.032Z,1.75
2023-05-12T14:06:29.914Z,1.88
2023-05-12T14:08:58.350Z,1.80
2023-05-12T14:11:24.369Z,2.03
2023-05-12T14:13:53.532Z,1.75
2023-05-12T14:16:19.625Z,1.83
2023-05-12T14:18:45.678Z,1.60
2023-05-12T14:21:11.739Z,1.80
2023-05-12T14:23:39.087Z,1.80
2023-05-12T14:26:05.094Z,2.25
2023-05-12T14:28:31.057Z,2.08
2023-05-12T14:30:57.213Z,1.65
2023-05-12T14:33:23.475Z,4.07
2023-05-12T14:35:59.405Z,1.65
2023-05-12T14:38:32.292Z,1.83
2023-05-12T14:40:58.388Z,1.60
2023-05-12T14:43:39.931Z,1.92
2023-05-12T14:46:08.131Z,1.80
2023-05-12T14:48:34.321Z,1.73
2023-05-12T14:51:02.214Z,2.05
2023-05-12T14:53:28.572Z,1.85
2023-05-12T14:55:54.419Z,1.60
2023-05-12T14:58:23.658Z,2.67
2023-05-12T15:00:50.125Z,1.35
2023-05-12T15:03:16.484Z,1.48
2023-05-12T15:06:01.697Z,1.63
2023-05-12T15:08:28.418Z,1.35
2023-05-12T15:10:54.240Z,1.75
2023-05-12T15:13:20.817Z,2.13
2023-05-12T15:15:46.779Z,2.00
2023-05-12T15:18:12.865Z,1.65
2023-05-12T15:20:38.910Z,1.70
2023-05-12T15:23:04.893Z,1.50
2023-05-12T15:25:31.037Z,2.20
2023-05-12T15:27:56.965Z,2.47
2023-05-12T15:30:22.976Z,1.60
2023-05-12T15:32:49.220Z,2.65
2023-05-12T15:35:15.612Z,1.42
2023-05-12T15:37:41.614Z,1.67
2023-05-12T15:40:07.845Z,2.28
2023-05-12T15:42:33.823Z,1.60
2023-05-12T15:45:09.361Z,1.98
2023-05-12T15:47:35.773Z,2.30
2023-05-12T15:50:03.007Z,3.08
2023-05-12T15:52:29.164Z,2.25
2023-05-12T15:54:55.218Z,1.90
2023-05-12T15:57:21.701Z,1.98
2023-05-12T15:59:48.576Z,1.67
2023-05-12T16:02:15.548Z,1.55
2023-05-12T16:04:41.479Z,1.40
2023-05-12T16:07:07.398Z,2.58
2023-05-12T16:09:33.813Z,1.40
2023-05-12T16:11:59.985Z,2.00
2023-05-12T16:14:50.796Z,1.90
2023-05-12T16:17:16.864Z,2.30
2023-05-12T16:19:42.943Z,1.48
2023-05-12T16:22:09.117Z,2.85
2023-05-12T16:24:35.116Z,1.80
2023-05-12T16:27:01.339Z,2.47
2023-05-12T16:29:30.234Z,1.38
2023-05-12T16:31:56.184Z,2.20
2023-05-12T16:34:24.393Z,2.67
2023-05-12T16:36:50.664Z,1.75
2023-05-12T16:39:17.661Z,2.90
2023-05-12T16:41:43.971Z,2.70
2023-05-12T16:44:09.949Z,1.70
2023-05-12T16:46:36.114Z,2.72
2023-05-12T16:49:02.339Z,1.27
2023-05-12T16:51:32.550Z,2.95
2023-05-12T16:53:58.537Z,2.55
2023-05-12T16:56:25.325Z,1.90
2023-05-12T16:58:51.408Z,1.80
2023-05-12T17:01:17.570Z,1.95
2023-05-12T17:03:43.637Z,2.10
2023-05-12T17:06:10.275Z,1.90
2023-05-12T17:08:36.061Z,1.83
2023-05-12T17:11:02.539Z,2.10
2023-05-12T17:13:41.136Z,2.20
2023-05-12T17:16:07.100Z,1.70
2023-05-12T17:21:19.192Z,1.92
2023-05-12T17:23:45.382Z,1.17
2023-05-12T17:26:12.585Z,1.92
2023-05-12T17:28:38.897Z,2.13
2023-05-12T17:31:05.991Z,1.60
2023-05-12T17:33:31.888Z,1.58
2023-05-12T17:36:10.890Z,1.65
2023-05-12T17:38:38.138Z,2.97
2023-05-12T17:41:04.117Z,1.98
2023-05-12T17:43:32.952Z,1.77
2023-05-12T17:46:00.015Z,1.88
2023-05-12T17:48:26.064Z,2.15
2023-05-12T17:50:53.505Z,1.80
2023-05-12T17:53:19.336Z,1.83
2023-05-12T17:55:45.126Z,2.60
2023-05-12T17:58:11.107Z,2.15
2023-05-12T18:00:38.227Z,2.55
2023-05-12T18:03:04.369Z,2.63
2023-05-12T18:05:30.395Z,1.85
2023-05-12T18:07:56.287Z,3.65
2023-05-12T18:10:22.495Z,1.88
2023-05-12T18:12:48.768Z,1.55
2023-05-12T18:15:42.956Z,1.67
2023-05-12T18:18:09.567Z,2.20
2023-05-12T18:20:36.058Z,1.80
2023-05-12T18:23:02.185Z,2.58
2023-05-12T18:25:28.125Z,1.70
2023-05-12T18:27:54.049Z,1.73
2023-05-12T18:30:20.657Z,2.05
2023-05-12T18:32:46.763Z,2.50
2023-05-12T18:35:12.825Z,2.58
2023-05-12T18:37:38.746Z,2.00
2023-05-12T18:40:05.547Z,2.08
2023-05-12T18:42:31.521Z,2.60
2023-05-12T18:44:57.347Z,2.00
2023-05-12T18:47:23.424Z,2.95
2023-05-12T18:49:49.424Z,1.92
2023-05-12T18:52:16.204Z,1.90
2023-05-12T18:54:42.095Z,2.10
2023-05-12T18:57:08.659Z,2.42
2023-05-12T18:59:35.472Z,2.67
2023-05-12T19:02:01.611Z,2.10
2023-05-12T19:04:27.577Z,2.35
2023-05-12T19:06:53.489Z,2.83
2023-05-12T19:09:19.354Z,2.55
2023-05-12T19:11:45.342Z,3.67
2023-05-12T19:14:11.445Z,2.28
2023-05-12T19:16:37.678Z,1.65
2023-05-12T19:19:04.057Z,2.35
2023-05-12T19:21:32.064Z,2.58
2023-05-12T19:23:58.188Z,2.17
2023-05-12T19:26:24.204Z,2.13
2023-05-12T19:28:50.169Z,2.65
2023-05-12T19:31:16.201Z,2.90
2023-05-12T19:33:42.067Z,3.00
2023-05-12T19:36:09.242Z,2.40
2023-05-12T19:38:35.093Z,4.32
2023-05-12T19:41:01.880Z,2.15
2023-05-12T19:43:27.715Z,2.33
2023-05-12T19:45:55.356Z,3.30
2023-05-12T19:48:21.325Z,2.50
2023-05-12T19:50:47.295Z,2.90
2023-05-12T19:53:13.190Z,3.25
2023-05-12T19:55:39.138Z,2.67
2023-05-12T19:58:05.042Z,2.00
2023-05-12T20:00:31.392Z,3.47
2023-05-12T20:02:57.422Z,1.88
2023-05-12T20:05:23.986Z,2.83
2023-05-12T20:07:50.469Z,2.22
2023-05-12T20:10:16.254Z,3.25
2023-05-12T20:12:42.066Z,2.33
2023-05-12T20:15:08.308Z,3.47
2023-05-12T20:17:34.164Z,2.30
2023-05-12T20:20:01.442Z,4.60
2023-05-12T20:22:27.787Z,3.38
2023-05-12T20:24:53.666Z,2.45
2023-05-12T20:27:19.494Z,2.50
2023-05-12T20:29:45.349Z,2.10
2023-05-12T20:32:14.301Z,2.80
2023-05-12T20:34:40.533Z,4.35
2023-05-12T20:37:06.656Z,2.03
2023-05-12T20:39:32.611Z,3.20
2023-05-12T20:41:59.406Z,2.70
2023-05-12T20:44:35.250Z,2.80
2023-05-12T20:47:01.287Z,2.17
2023-05-12T20:49:27.582Z,4.13
2023-05-12T20:51:53.378Z,2.65
2023-05-12T20:54:19.454Z,2.58
2023-05-12T20:56:45.369Z,3.33
2023-05-12T20:59:11.365Z,2.35
2023-05-12T21:01:38.346Z,2.60
2023-05-12T21:04:05.040Z,2.45
2023-05-12T21:06:32.325Z,3.05
2023-05-12T21:08:58.117Z,2.80
2023-05-12T21:11:23.943Z,2.60
2023-05-12T21:13:55.164Z,2.25
2023-05-12T21:16:21.168Z,3.40
2023-05-12T21:18:47.219Z,3.10
2023-05-12T21:21:13.195Z,2.40
2023-05-12T21:23:39.988Z,2.42
2023-05-12T21:26:05.746Z,2.67
2023-05-12T21:28:31.674Z,2.78
2023-05-12T21:30:57.434Z,3.22
2023-05-12T21:33:23.225Z,2.55
2023-05-12T21:35:51.768Z,2.80
2023-05-12T21:38:17.598Z,2.85
2023-05-12T21:40:43.652Z,2.15
2023-05-12T21:43:09.460Z,2.80
2023-05-12T21:45:35.204Z,2.80
2023-05-12T21:48:00.942Z,3.08
2023-05-12T21:50:26.884Z,2.75
2023-05-12T21:52:52.642Z,2.65
2023-05-12T21:55:18.489Z,3.05
2023-05-12T21:57:44.233Z,2.50
2023-05-12T22:00:12.038Z,2.85
2023-05-12T22:02:37.834Z,2.40
2023-05-12T22:05:04.910Z,2.17
2023-05-12T22:07:30.821Z,2.30
2023-05-12T22:09:56.848Z,2.35
2023-05-12T22:12:22.660Z,3.00
2023-05-12T22:14:48.398Z,3.15
2023-05-12T22:17:14.119Z,2.20
2023-05-12T22:19:40.486Z,2.33
2023-05-12T22:22:06.200Z,2.60
2023-05-12T22:24:31.973Z,2.80
2023-05-12T22:26:57.907Z,2.67
2023-05-12T22:29:23.709Z,2.88
2023-05-12T22:31:49.521Z,2.35
2023-05-12T22:34:15.407Z,2.78
2023-05-12T22:36:41.157Z,3.13
2023-05-12T22:39:07.052Z,2.20
2023-05-12T22:41:32.882Z,2.72
2023-05-12T22:43:58.669Z,2.92
2023-05-12T22:46:24.522Z,3.00
2023-05-12T22:48:51.984Z,2.92
2023-05-12T22:51:17.750Z,3.33
2023-05-12T22:53:44.122Z,3.20
2023-05-12T22:56:09.874Z,2.35
2023-05-12T22:58:35.612Z,2.38
2023-05-12T23:01:01.449Z,2.83
2023-05-12T23:03:27.295Z,2.55
2023-05-12T23:05:53.084Z,3.05
2023-05-12T23:08:18.867Z,2.90
2023-05-12T23:10:44.716Z,2.67
2023-05-12T23:13:10.503Z,2.88
2023-05-12T23:15:36.347Z,3.47
2023-05-12T23:18:02.160Z,3.35
2023-05-12T23:20:28.031Z,3.05
2023-05-12T23:22:53.809Z,2.63
2023-05-12T23:25:19.633Z,3.53
2023-05-12T23:27:45.404Z,2.33
2023-05-12T23:30:11.390Z,3.33
2023-05-12T23:32:37.393Z,2.92
2023-05-12T23:35:03.424Z,2.50
2023-05-12T23:37:29.256Z,2.67
2023-05-12T23:39:55.034Z,3.30
2023-05-12T23:42:20.979Z,3.05
2023-05-12T23:44:46.713Z,3.17
2023-05-12T23:47:12.500Z,3.35
2023-05-12T23:49:38.426Z,2.83
2023-05-12T23:52:04.230Z,3.35
2023-05-12T23:54:30.246Z,3.00
2023-05-12T23:56:55.990Z,3.72
2023-05-12T23:59:21.716Z,2.83
